Time;durP1;ratioP1;P1;durP2;ratioP2;P2;SDS_P1;SDS_P2;PMS_P1;PMS_P2;Temp;Humidity;BMP_temperature;BMP_pressure;BME280_temperature;BME280_humidity;BME280_pressure;Samples;Min_cycle;Max_cycle;Signal;HPM_P1;HPM_P2
2022/04/09 00:02:00;;;;;;;1.07;0.50;;;;;-1.00;92384.00;;;;7406438;19;20137;-79
2022/04/09 00:04:36;;;;;;;3.13;0.40;;;;;-1.10;92398.00;;;;7408968;19;20128;-80
2022/04/09 00:07:06;;;;;;;0.60;0.50;;;;;-1.00;92428.00;;;;7405604;19;20165;-80
2022/04/09 00:09:33;;;;;;;6.80;1.03;;;;;-1.20;92435.00;;;;7406257;19;20213;-81
2022/04/09 00:12:24;;;;;;;0.83;0.80;;;;;-1.30;92455.00;;;;7406510;19;20125;-80
2022/04/09 00:15:01;;;;;;;1.00;0.60;;;;;-1.20;92464.00;;;;7413640;19;20146;-81
2022/04/09 00:17:45;;;;;;;0.53;0.53;;;;;-1.10;92481.00;;;;7407800;19;20151;-80
2022/04/09 00:20:18;;;;;;;0.47;0.40;;;;;-1.20;92474.00;;;;7407203;19;20140;-81
2022/04/09 00:22:52;;;;;;;0.90;0.70;;;;;-1.20;92479.00;;;;7407915;19;20600;-81
2022/04/09 00:25:29;;;;;;;0.70;0.70;;;;;-1.20;92478.00;;;;7409325;19;20141;-81
2022/04/09 00:28:04;;;;;;;0.73;0.70;;;;;-1.20;92482.00;;;;7412499;19;20148;-82
2022/04/09 00:30:32;;;;;;;0.87;0.80;;;;;-1.10;92486.00;;;;7408490;19;20161;-82
2022/04/09 00:33:03;;;;;;;0.97;0.60;;;;;-1.00;92504.00;;;;7407260;19;20133;-80
2022/04/09 00:35:42;;;;;;;0.50;0.50;;;;;-1.10;92513.00;;;;7408059;19;20144;-81
2022/04/09 00:38:10;;;;;;;0.80;0.70;;;;;-1.00;92531.00;;;;7408749;19;20144;-81
2022/04/09 00:40:37;;;;;;;1.70;0.67;;;;;-0.90;92539.00;;;;7409918;19;20133;-82
2022/04/09 00:43:12;;;;;;;0.63;0.63;;;;;-1.10;92537.00;;;;7410139;19;20124;-81
2022/04/09 00:45:41;;;;;;;0.63;0.63;;;;;-1.10;92563.00;;;;7407197;19;20147;-82
2022/04/09 00:48:12;;;;;;;1.10;0.73;;;;;-1.10;92567.00;;;;7410339;19;20156;-82
2022/04/09 00:50:47;;;;;;;0.77;0.70;;;;;-1.00;92589.00;;;;7407858;19;20157;-81
2022/04/09 00:53:16;;;;;;;0.70;0.70;;;;;-1.00;92594.00;;;;7408488;19;20145;-82
2022/04/09 00:58:41;;;;;;;1.70;1.03;;;;;-1.00;92627.00;;;;7407655;19;20487;-80
2022/04/09 01:01:08;;;;;;;0.90;0.90;;;;;-0.90;92627.00;;;;7406652;19;20137;-80
2022/04/09 01:03:39;;;;;;;1.03;0.83;;;;;-0.90;92642.00;;;;7406482;19;20137;-81
2022/04/09 01:06:14;;;;;;;1.47;0.93;;;;;-0.80;92654.00;;;;7402190;19;20137;-81
2022/04/09 01:08:44;;;;;;;0.93;0.83;;;;;-0.80;92654.00;;;;7404791;19;20155;-80
2022/04/09 01:11:17;;;;;;;1.67;1.00;;;;;-0.60;92660.00;;;;7409523;19;20600;-80
2022/04/09 01:14:10;;;;;;;3.03;1.30;;;;;-0.80;92660.00;;;;7403906;19;20165;-81
2022/04/09 01:16:45;;;;;;;1.50;1.20;;;;;-0.80;92665.00;;;;7405508;19;20678;-79
2022/04/09 01:19:24;;;;;;;2.17;1.30;;;;;-0.70;92659.00;;;;7404619;19;20463;-80
2022/04/09 01:21:54;;;;;;;1.87;1.57;;;;;-0.80;92672.00;;;;7405370;19;20742;-79
2022/04/09 01:24:29;;;;;;;3.17;1.70;;;;;-0.90;92685.00;;;;7405999;19;20151;-79
2022/04/09 01:26:59;;;;;;;2.37;1.50;;;;;-0.80;92686.00;;;;7401984;19;20145;-80
2022/04/09 01:29:32;;;;;;;1.83;1.70;;;;;-0.80;92690.00;;;;7410176;19;20156;-80
2022/04/09 01:32:06;;;;;;;3.27;2.00;;;;;-0.70;92703.00;;;;7410523;19;20148;-80
2022/04/09 01:34:41;;;;;;;4.23;1.77;;;;;-0.80;92715.00;;;;7408901;19;20136;-81
2022/04/09 01:37:15;;;;;;;2.17;1.97;;;;;-0.80;92713.00;;;;7405989;19;20147;-80
2022/04/09 01:39:43;;;;;;;3.43;2.10;;;;;-0.70;92709.00;;;;7402883;19;20152;-81
2022/04/09 01:42:11;;;;;;;3.20;2.40;;;;;-0.70;92717.00;;;;7402913;19;20148;-80
2022/04/09 01:44:49;;;;;;;2.20;2.00;;;;;-0.70;92720.00;;;;7399731;19;20180;-80
2022/04/09 01:47:16;;;;;;;2.73;1.80;;;;;-0.60;92728.00;;;;7399247;19;20133;-80
2022/04/09 01:49:46;;;;;;;2.20;2.00;;;;;-0.40;92743.00;;;;7398607;19;20184;-79
2022/04/09 01:52:20;;;;;;;2.60;2.03;;;;;-0.50;92755.00;;;;7408223;19;20148;-80
2022/04/09 01:54:47;;;;;;;2.20;2.00;;;;;-0.40;92754.00;;;;7404792;19;20129;-81
2022/04/09 01:57:15;;;;;;;2.20;1.93;;;;;-0.50;92771.00;;;;7405033;19;20145;-79
2022/04/09 01:59:50;;;;;;;2.20;2.00;;;;;-0.30;92778.00;;;;7405344;19;20121;-80
2022/04/09 02:02:17;;;;;;;2.50;2.20;;;;;-0.40;92779.00;;;;7404262;19;20144;-80
2022/04/09 02:04:52;;;;;;;2.40;2.10;;;;;-0.40;92782.00;;;;7406453;19;20566;-79
2022/04/09 02:07:28;;;;;;;2.73;2.20;;;;;-0.60;92799.00;;;;7406844;19;20470;-80
2022/04/09 02:09:56;;;;;;;3.23;1.90;;;;;-0.40;92796.00;;;;7404041;19;20136;-81
2022/04/09 02:12:23;;;;;;;2.17;1.90;;;;;-0.40;92812.00;;;;7403987;19;20196;-81
2022/04/09 02:15:15;;;;;;;1.93;1.77;;;;;-0.30;92812.00;;;;7404622;19;20136;-80
2022/04/09 02:17:44;;;;;;;2.60;2.00;;;;;-0.20;92816.00;;;;7404362;19;20149;-80
2022/04/09 02:20:18;;;;;;;2.37;1.70;;;;;-0.30;92812.00;;;;7405096;19;20116;-81
2022/04/09 02:22:48;;;;;;;2.13;1.80;;;;;-0.30;92822.00;;;;7406379;19;20125;-82
2022/04/09 02:25:19;;;;;;;2.00;1.80;;;;;-0.30;92828.00;;;;7403571;19;20153;-80
2022/04/09 02:27:58;;;;;;;1.70;1.47;;;;;-0.40;92841.00;;;;7408649;19;20141;-80
2022/04/09 02:30:26;;;;;;;1.93;1.40;;;;;-0.40;92847.00;;;;7408212;19;20144;-81
2022/04/09 02:33:00;;;;;;;2.30;1.97;;;;;-0.50;92851.00;;;;7405533;19;20132;-81
2022/04/09 02:35:29;;;;;;;1.70;1.60;;;;;-0.40;92863.00;;;;7406693;19;20152;-80
2022/04/09 02:37:59;;;;;;;1.70;1.60;;;;;-0.20;92884.00;;;;7408300;19;20145;-82
2022/04/09 02:40:34;;;;;;;2.10;1.90;;;;;-0.30;92877.00;;;;7402140;19;20165;-80
2022/04/09 02:43:08;;;;;;;3.00;2.00;;;;;-0.30;92882.00;;;;7407302;19;20249;-80
2022/04/09 02:45:44;;;;;;;3.03;2.73;;;;;-0.20;92899.00;;;;7406203;19;20141;-80
2022/04/09 02:48:16;;;;;;;5.70;4.00;;;;;-0.20;92896.00;;;;7405496;19;20141;-81
2022/04/09 02:50:52;;;;;;;5.83;3.63;;;;;-0.20;92907.00;;;;7402820;19;20187;-81
2022/04/09 02:53:23;;;;;;;4.60;3.33;;;;;-0.40;92922.00;;;;7402492;19;20162;-80
2022/04/09 02:55:57;;;;;;;6.23;3.77;;;;;-0.40;92923.00;;;;7402062;19;20599;-82
2022/04/09 02:58:27;;;;;;;3.77;3.03;;;;;-0.40;92931.00;;;;7411521;19;20147;-80
2022/04/09 03:00:55;;;;;;;6.57;4.03;;;;;-0.40;92933.00;;;;7413401;19;20528;-81
2022/04/09 03:03:28;;;;;;;4.93;3.73;;;;;-0.40;92939.00;;;;7410916;19;20140;-81
2022/04/09 03:06:00;;;;;;;5.07;3.90;;;;;-0.30;92954.00;;;;7409084;19;20133;-80
2022/04/09 03:08:28;;;;;;;5.50;4.50;;;;;-0.30;92955.00;;;;7410653;19;20155;-80
2022/04/09 03:11:05;;;;;;;7.27;4.60;;;;;-0.30;92964.00;;;;7416164;19;20575;-81
2022/04/09 03:13:39;;;;;;;6.73;5.80;;;;;-0.20;92966.00;;;;7411977;19;20208;-82
2022/04/09 03:16:14;;;;;;;9.73;6.07;;;;;-0.40;92980.00;;;;7409316;19;20136;-81
2022/04/09 03:18:43;;;;;;;8.23;5.87;;;;;-0.30;92975.00;;;;7408924;19;20615;-81
2022/04/09 03:21:12;;;;;;;11.77;7.60;;;;;-0.30;92990.00;;;;7412949;19;20149;-81
2022/04/09 03:23:47;;;;;;;11.47;8.63;;;;;-0.30;93003.00;;;;7407529;19;20493;-82
2022/04/09 03:26:14;;;;;;;15.00;9.03;;;;;-0.30;93001.00;;;;7405778;19;20627;-82
2022/04/09 03:28:42;;;;;;;15.20;9.47;;;;;-0.40;93012.00;;;;7407432;19;20168;-80
2022/04/09 03:31:16;;;;;;;14.67;9.43;;;;;-0.20;93020.00;;;;7408380;19;20121;-81
2022/04/09 03:33:45;;;;;;;13.73;9.70;;;;;-0.20;93040.00;;;;7405077;19;20149;-81
2022/04/09 03:36:13;;;;;;;15.83;10.60;;;;;-0.30;93030.00;;;;7406137;19;20639;-81
2022/04/09 03:38:49;;;;;;;22.93;11.17;;;;;-0.50;93040.00;;;;7405406;19;20140;-82
2022/04/09 03:41:19;;;;;;;19.73;10.43;;;;;-0.50;93050.00;;;;7405463;19;20149;-81
2022/04/09 03:43:49;;;;;;;14.43;10.10;;;;;-0.40;93060.00;;;;7404639;19;20596;-81
2022/04/09 03:46:27;;;;;;;14.77;9.87;;;;;-0.40;93060.00;;;;7408783;19;20133;-80
2022/04/09 03:48:54;;;;;;;28.33;12.33;;;;;-0.40;93062.00;;;;7407113;19;20137;-80
2022/04/09 03:51:22;;;;;;;25.13;11.87;;;;;-0.50;93077.00;;;;7405542;19;20145;-82
2022/04/09 03:53:56;;;;;;;45.33;11.93;;;;;-0.50;93070.00;;;;7405384;19;20617;-81
2022/04/09 03:56:23;;;;;;;38.90;12.07;;;;;-0.40;93088.00;;;;7404119;19;20160;-81
2022/04/09 03:58:51;;;;;;;15.43;10.00;;;;;-0.40;93093.00;;;;7403588;19;20132;-80
2022/04/09 04:01:27;;;;;;;13.87;9.93;;;;;-0.40;93102.00;;;;7403055;19;20611;-80
2022/04/09 04:03:54;;;;;;;23.80;11.53;;;;;-0.20;93100.00;;;;7405654;19;20446;-81
2022/04/09 04:06:24;;;;;;;22.50;12.30;;;;;-0.30;93096.00;;;;7403611;19;20129;-82
2022/04/09 04:08:59;;;;;;;14.50;10.10;;;;;-0.40;93103.00;;;;7399547;19;20170;-80
2022/04/09 04:11:26;;;;;;;15.23;10.50;;;;;-0.50;93112.00;;;;7401840;19;20124;-81
2022/04/09 04:13:54;;;;;;;13.20;10.77;;;;;-0.40;93108.00;;;;7404835;19;20196;-80
2022/04/09 04:16:30;;;;;;;18.10;9.93;;;;;-0.40;93114.00;;;;7402542;19;20168;-80
2022/04/09 04:18:58;;;;;;;15.33;10.03;;;;;-0.50;93116.00;;;;7405008;19;20121;-79
2022/04/09 04:21:27;;;;;;;16.00;10.90;;;;;-0.40;93127.00;;;;7399540;19;20157;-76
2022/04/09 04:24:05;;;;;;;16.27;10.73;;;;;-0.50;93123.00;;;;7403018;19;20136;-81
2022/04/09 04:26:54;;;;;;;12.27;9.93;;;;;-0.50;93127.00;;;;7402044;19;20131;-80
2022/04/09 04:29:35;;;;;;;16.40;10.87;;;;;-0.30;93136.00;;;;7404025;19;20809;-81
2022/04/09 04:32:10;;;;;;;15.47;11.57;;;;;-0.60;93134.00;;;;7401751;19;20150;-81
2022/04/09 04:34:52;;;;;;;15.57;10.40;;;;;-0.60;93144.00;;;;7402187;19;20121;-80
2022/04/09 04:37:45;;;;;;;15.63;11.60;;;;;-0.70;93152.00;;;;7401678;19;20145;-81
2022/04/09 04:40:27;;;;;;;17.20;11.13;;;;;-0.70;93158.00;;;;7402977;19;20157;-80
2022/04/09 04:43:09;;;;;;;19.50;12.27;;;;;-0.60;93154.00;;;;7404025;19;20133;-80
2022/04/09 04:45:50;;;;;;;17.50;11.30;;;;;-0.60;93174.00;;;;7400939;19;20724;-81
2022/04/09 04:48:22;;;;;;;17.80;11.77;;;;;-0.70;93165.00;;;;7401832;19;20140;-80
2022/04/09 04:51:01;;;;;;;19.23;12.20;;;;;-0.80;93174.00;;;;7398613;19;20137;-80
2022/04/09 04:53:32;;;;;;;16.63;11.60;;;;;-0.80;93187.00;;;;7399301;19;20587;-80
2022/04/09 04:56:08;;;;;;;17.63;12.30;;;;;-0.80;93187.00;;;;7401165;19;20162;-81
2022/04/09 04:58:41;;;;;;;17.97;11.93;;;;;-0.80;93191.00;;;;7402849;19;20174;-80
2022/04/09 05:01:20;;;;;;;18.53;12.40;;;;;-0.90;93198.00;;;;7396831;19;20192;-80
2022/04/09 05:03:50;;;;;;;16.27;11.07;;;;;-0.80;93193.00;;;;7397871;19;20159;-79
2022/04/09 05:06:28;;;;;;;21.00;11.83;;;;;-0.70;93192.00;;;;7396206;19;20129;-80
2022/04/09 05:08:57;;;;;;;17.37;12.13;;;;;-0.80;93206.00;;;;7397766;19;20168;-80
2022/04/09 05:11:32;;;;;;;18.17;11.90;;;;;-0.70;93209.00;;;;7397979;19;20137;-80
2022/04/09 05:14:16;;;;;;;18.00;12.03;;;;;-0.80;93209.00;;;;7397131;19;20156;-79
2022/04/09 05:16:57;;;;;;;15.57;11.00;;;;;-0.80;93210.00;;;;7400221;19;20136;-80
2022/04/09 05:19:26;;;;;;;20.07;11.47;;;;;-0.70;93216.00;;;;7399750;19;20153;-81
2022/04/09 05:22:04;;;;;;;16.13;12.27;;;;;-0.80;93229.00;;;;7399341;19;20615;-81
2022/04/09 05:24:34;;;;;;;18.23;11.63;;;;;-0.60;93232.00;;;;7397024;19;20139;-80
2022/04/09 05:27:13;;;;;;;17.17;10.97;;;;;-0.50;93236.00;;;;7397082;19;20220;-79
2022/04/09 05:29:43;;;;;;;18.37;11.17;;;;;-0.40;93241.00;;;;7398567;19;20485;-80
2022/04/09 05:32:18;;;;;;;18.53;11.53;;;;;-0.60;93248.00;;;;7396946;19;20136;-80
2022/04/09 05:34:49;;;;;;;20.57;12.40;;;;;-0.50;93257.00;;;;7399472;19;20145;-80
2022/04/09 05:37:21;;;;;;;16.00;11.00;;;;;-0.40;93251.00;;;;7398469;19;20129;-81
2022/04/09 05:39:58;;;;;;;15.90;12.07;;;;;-0.30;93268.00;;;;7396151;19;20144;-78
2022/04/09 05:42:26;;;;;;;16.67;12.57;;;;;-0.20;93257.00;;;;7393536;19;20159;-78
2022/04/09 05:44:54;;;;;;;22.50;13.80;;;;;0.10;93270.00;;;;7394851;19;20619;-77
2022/04/09 05:47:28;;;;;;;19.30;13.03;;;;;-0.10;93267.00;;;;7394648;19;20156;-77
2022/04/09 05:49:58;;;;;;;20.70;12.83;;;;;-0.10;93289.00;;;;7392387;19;20603;-76
2022/04/09 05:52:28;;;;;;;19.90;14.07;;;;;0.20;93273.00;;;;7386821;19;20175;-78
2022/04/09 05:55:04;;;;;;;20.90;12.30;;;;;0.50;93282.00;;;;7392845;19;20137;-79
2022/04/09 05:57:33;;;;;;;18.43;12.63;;;;;0.50;93280.00;;;;7394920;19;20480;-79
2022/04/09 06:00:04;;;;;;;21.63;13.47;;;;;0.60;93284.00;;;;7402972;19;20145;-80
2022/04/09 06:02:55;;;;;;;19.03;12.00;;;;;0.70;93294.00;;;;7408112;19;20137;-77
2022/04/09 06:05:23;;;;;;;15.27;11.67;;;;;0.60;93296.00;;;;7398448;19;20200;-80
2022/04/09 06:08:00;;;;;;;16.03;10.73;;;;;0.50;93294.00;;;;7391731;19;20156;-78
2022/04/09 06:10:32;;;;;;;15.07;10.70;;;;;0.40;93311.00;;;;7390936;19;20611;-79
2022/04/09 06:13:24;;;;;;;29.70;18.50;;;;;0.40;93317.00;;;;7391845;19;20168;-79
2022/04/09 06:15:59;;;;;;;16.13;10.77;;;;;0.60;93322.00;;;;7394966;19;20619;-79
2022/04/09 06:18:33;;;;;;;14.93;9.77;;;;;1.00;93328.00;;;;7393776;19;20206;-78
2022/04/09 06:21:07;;;;;;;14.63;10.70;;;;;1.30;93328.00;;;;7393720;19;20133;-77
2022/04/09 06:23:42;;;;;;;18.90;9.70;;;;;1.00;93333.00;;;;7394100;19;20140;-77
2022/04/09 06:26:09;;;;;;;13.57;8.67;;;;;1.00;93335.00;;;;7390822;19;20149;-77
2022/04/09 06:28:37;;;;;;;11.77;8.00;;;;;1.00;93333.00;;;;7394007;19;20145;-76
2022/04/09 06:31:11;;;;;;;10.80;8.53;;;;;1.30;93343.00;;;;7391906;19;20152;-76
2022/04/09 06:33:42;;;;;;;13.00;8.87;;;;;1.60;93350.00;;;;7397930;19;20622;-76
2022/04/09 06:36:12;;;;;;;11.87;8.17;;;;;1.80;93343.00;;;;7397723;19;20165;-76
2022/04/09 06:38:46;;;;;;;11.80;7.83;;;;;1.70;93356.00;;;;7398084;19;20139;-77
2022/04/09 06:41:14;;;;;;;12.27;8.20;;;;;1.50;93349.00;;;;7398577;19;20630;-76
2022/04/09 06:43:41;;;;;;;10.40;7.13;;;;;1.50;93353.00;;;;7397859;19;20160;-77
2022/04/09 06:46:19;;;;;;;13.07;8.07;;;;;1.40;93346.00;;;;7398063;19;20165;-74
2022/04/09 06:48:52;;;;;;;12.13;8.67;;;;;1.90;93358.00;;;;7394534;19;20613;-78
2022/04/09 06:51:33;;;;;;;12.37;8.23;;;;;2.30;93348.00;;;;7397136;19;20586;-75
2022/04/09 06:54:01;;;;;;;11.97;8.17;;;;;1.60;93354.00;;;;7399269;19;20607;-76
2022/04/09 06:56:39;;;;;;;12.57;8.23;;;;;1.60;93361.00;;;;7404330;19;20121;-75
2022/04/09 06:59:06;;;;;;;11.67;9.03;;;;;1.60;93375.00;;;;7400811;19;20137;-76
2022/04/09 07:01:39;;;;;;;12.03;8.13;;;;;0.80;93368.00;;;;7400333;19;20136;-76
2022/04/09 07:04:18;;;;;;;11.93;9.73;;;;;0.60;93373.00;;;;7400582;19;20604;-76
2022/04/09 07:06:53;;;;;;;14.77;9.47;;;;;0.50;93375.00;;;;7401414;19;20502;-76
2022/04/09 07:09:32;;;;;;;14.23;10.00;;;;;0.90;93379.00;;;;7394694;19;20642;-76
2022/04/09 07:12:03;;;;;;;15.80;9.20;;;;;1.40;93366.00;;;;7403817;19;20137;-76
2022/04/09 07:14:54;;;;;;;10.97;8.63;;;;;1.20;93375.00;;;;7399623;19;20538;-75
2022/04/09 07:17:29;;;;;;;16.47;11.87;;;;;1.60;93383.00;;;;7401509;19;20150;-75
2022/04/09 07:20:08;;;;;;;18.83;11.47;;;;;0.90;93380.00;;;;7404448;19;20606;-76
2022/04/09 07:22:37;;;;;;;16.20;10.10;;;;;1.10;93393.00;;;;7404813;19;20149;-76
2022/04/09 07:25:19;;;;;;;13.37;8.83;;;;;1.10;93386.00;;;;7404444;19;20216;-77
2022/04/09 07:27:48;;;;;;;14.53;9.23;;;;;1.20;93380.00;;;;7399775;19;20175;-76
2022/04/09 07:30:24;;;;;;;12.00;8.83;;;;;1.70;93394.00;;;;7404837;19;20135;-76
2022/04/09 07:32:58;;;;;;;11.87;8.30;;;;;2.20;93373.00;;;;7400075;19;20592;-76
2022/04/09 07:35:41;;;;;;;12.03;7.90;;;;;2.30;93388.00;;;;7393639;19;20212;-79
2022/04/09 07:38:10;;;;;;;9.37;7.23;;;;;2.70;93383.00;;;;7409409;19;20133;-80
2022/04/09 07:40:45;;;;;;;9.77;7.23;;;;;2.70;93380.00;;;;7408153;19;20176;-78
2022/04/09 07:43:13;;;;;;;13.00;7.37;;;;;2.90;93376.00;;;;7408914;19;20208;-79
2022/04/09 07:45:44;;;;;;;9.23;6.37;;;;;2.40;93379.00;;;;7413525;19;20143;-79
2022/04/09 07:48:25;;;;;;;8.13;6.47;;;;;3.20;93386.00;;;;7408599;19;20133;-79
2022/04/09 07:50:54;;;;;;;10.93;6.17;;;;;2.80;93386.00;;;;7413812;19;20150;-78
2022/04/09 07:53:30;;;;;;;8.67;5.50;;;;;3.30;93397.00;;;;7412043;19;20140;-79
2022/04/09 08:00:49;;;;;;;8.67;5.13;;;;;3.40;93414.00;;;;7438245;19;20130;-86
2022/04/09 08:03:56;;;;;;;12.37;6.23;;;;;2.10;93409.00;;;;7397710;19;20344;-78
2022/04/09 08:06:33;;;;;;;10.53;5.70;;;;;2.80;93403.00;;;;7399931;19;20133;-75
2022/04/09 08:09:04;;;;;;;9.50;5.77;;;;;3.30;93424.00;;;;7394121;19;20204;-75
2022/04/09 08:11:38;;;;;;;8.60;5.77;;;;;3.60;93430.00;;;;7397457;19;20212;-78
2022/04/09 08:14:08;;;;;;;9.70;5.33;;;;;3.30;93424.00;;;;7403160;19;20534;-79
2022/04/09 08:16:38;;;;;;;7.87;5.83;;;;;4.20;93423.00;;;;7403223;19;20152;-76
2022/04/09 08:19:20;;;;;;;7.53;5.90;;;;;4.70;93432.00;;;;7404729;19;20651;-77
2022/04/09 08:21:48;;;;;;;9.13;5.67;;;;;3.70;93436.00;;;;7402261;19;20539;-79
2022/04/09 08:24:22;;;;;;;10.07;5.20;;;;;4.30;93440.00;;;;7404683;19;20166;-76
2022/04/09 08:26:50;;;;;;;9.67;5.70;;;;;4.60;93457.00;;;;7394951;19;20144;-74
2022/04/09 08:29:20;;;;;;;8.63;5.00;;;;;3.70;93468.00;;;;7399645;19;20152;-77
2022/04/09 08:31:55;;;;;;;7.90;5.27;;;;;3.40;93463.00;;;;7397161;19;20148;-74
2022/04/09 08:34:35;;;;;;;7.87;5.27;;;;;3.50;93468.00;;;;7396513;19;20144;-74
2022/04/09 08:37:15;;;;;;;9.77;5.10;;;;;4.00;93491.00;;;;7395265;19;20501;-75
2022/04/09 08:39:45;;;;;;;8.93;5.50;;;;;3.40;93501.00;;;;7398753;19;20148;-74
2022/04/09 08:42:27;;;;;;;11.57;5.10;;;;;3.70;93498.00;;;;7398446;19;20140;-74
2022/04/09 08:45:00;;;;;;;11.47;5.57;;;;;2.80;93518.00;;;;7396193;19;20124;-75
2022/04/09 08:47:38;;;;;;;8.03;5.60;;;;;3.00;93513.00;;;;7398955;19;20145;-74
2022/04/09 08:50:12;;;;;;;10.77;5.57;;;;;2.70;93523.00;;;;7397050;19;20580;-74
2022/04/09 08:52:46;;;;;;;7.43;5.17;;;;;2.40;93516.00;;;;7399458;19;20553;-76
2022/04/09 08:55:17;;;;;;;8.63;5.40;;;;;2.80;93522.00;;;;7394764;19;20121;-75
2022/04/09 08:57:46;;;;;;;12.40;5.60;;;;;2.90;93522.00;;;;7399824;19;20149;-75
2022/04/09 09:00:23;;;;;;;12.17;5.63;;;;;3.00;93516.00;;;;7396496;19;20148;-74
2022/04/09 09:03:02;;;;;;;18.23;5.40;;;;;4.40;93508.00;;;;7394953;19;20145;-75
2022/04/09 09:05:37;;;;;;;6.03;4.63;;;;;4.20;93538.00;;;;7399740;19;20195;-76
2022/04/09 09:08:14;;;;;;;13.67;5.27;;;;;4.20;93542.00;;;;7396590;19;20151;-75
2022/04/09 09:10:58;;;;;;;7.80;4.77;;;;;4.30;93543.00;;;;7397343;19;20142;-75
2022/04/09 09:13:31;;;;;;;10.20;4.77;;;;;4.70;93551.00;;;;7399773;19;20521;-73
2022/04/09 09:16:09;;;;;;;10.23;4.97;;;;;3.80;93555.00;;;;7398143;19;20182;-74
2022/04/09 09:19:07;;;;;;;9.20;5.33;;;;;3.80;93552.00;;;;7395281;19;20235;-73
2022/04/09 09:21:59;;;;;;;16.33;5.03;;;;;4.10;93556.00;;;;7397413;19;20165;-75
2022/04/09 09:28:01;;;;;;;9.67;4.37;;;;;4.50;93559.00;;;;7394681;19;20227;-75
2022/04/09 09:30:50;;;;;;;9.03;4.87;;;;;4.60;93563.00;;;;7394751;19;20137;-76
2022/04/09 09:33:29;;;;;;;7.40;4.50;;;;;3.90;93568.00;;;;7397030;19;20181;-76
2022/04/09 09:36:33;;;;;;;6.83;4.43;;;;;3.20;93567.00;;;;7397215;19;20156;-76
2022/04/09 09:39:33;;;;;;;9.67;4.50;;;;;3.90;93576.00;;;;7394163;19;20144;-76
2022/04/09 09:42:39;;;;;;;12.10;4.70;;;;;4.00;93580.00;;;;7394804;19;20193;-75
2022/04/09 09:45:56;;;;;;;7.87;4.57;;;;;3.90;93577.00;;;;7393178;19;20157;-75
2022/04/09 09:48:29;;;;;;;6.80;4.30;;;;;3.90;93576.00;;;;7393826;19;20173;-75
2022/04/09 09:51:03;;;;;;;8.30;5.33;;;;;4.70;93562.00;;;;7396379;19;20800;-75
2022/04/09 09:53:37;;;;;;;9.57;4.80;;;;;5.00;93555.00;;;;7396997;19;20800;-74
2022/04/09 09:56:12;;;;;;;8.20;3.83;;;;;5.00;93574.00;;;;7394170;19;20572;-75
2022/04/09 09:58:40;;;;;;;8.43;4.10;;;;;4.80;93579.00;;;;7394989;19;20145;-76
2022/04/09 10:01:16;;;;;;;7.03;4.37;;;;;4.80;93576.00;;;;7394972;19;20619;-75
2022/04/09 10:03:59;;;;;;;9.73;4.00;;;;;6.00;93578.00;;;;7392952;19;20174;-76
2022/04/09 10:06:42;;;;;;;7.50;3.87;;;;;7.20;93585.00;;;;7395936;19;20805;-75
2022/04/09 10:09:18;;;;;;;7.87;3.60;;;;;6.50;93579.00;;;;7396114;19;20600;-75
2022/04/09 10:11:59;;;;;;;8.93;3.70;;;;;7.00;93594.00;;;;7394837;19;20144;-75
2022/04/09 10:14:59;;;;;;;9.33;4.47;;;5.40;99.90;8.10;93593.00;;;;7392696;19;20144;-74
2022/04/09 10:17:30;;;;;;;7.33;3.33;;;5.90;1.00;8.20;93588.00;;;;7394040;19;20234;-74
2022/04/09 10:20:08;;;;;;;9.60;4.23;;;6.40;99.90;7.80;93610.00;;;;7393162;19;20553;-73
2022/04/09 10:22:45;;;;;;;7.40;3.27;;;6.10;99.90;8.30;93581.00;;;;7394848;19;20156;-74
2022/04/09 10:25:22;;;;;;;8.43;3.83;;;6.00;99.90;7.20;93587.00;;;;7392382;19;20129;-74
2022/04/09 10:27:54;;;;;;;7.60;3.53;;;5.80;99.90;6.80;93575.00;;;;7393665;19;20219;-72
2022/04/09 10:30:37;;;;;;;10.77;3.83;;;5.60;99.90;7.00;93614.00;;;;7395046;19;20169;-73
2022/04/09 10:33:22;;;;;;;7.83;3.80;;;5.20;99.90;8.10;93603.00;;;;7394146;19;20612;-74
2022/04/09 10:36:06;;;;;;;8.47;3.20;;;6.80;99.90;9.60;93587.00;;;;7394113;19;20148;-74
2022/04/09 10:38:41;;;;;;;9.68;3.65;;;7.40;8.40;10.50;93592.00;;;;7396545;19;20519;-75
2022/04/09 10:41:14;;;;;;;7.80;3.10;;;8.10;1.00;9.50;93587.00;;;;7395428;19;20584;-74
2022/04/09 10:43:45;;;;;;;6.40;3.20;;;8.00;1.00;9.70;93606.00;;;;7395652;19;20616;-75
2022/04/09 10:46:20;;;;;;;6.82;3.05;;;8.50;1.00;9.50;93600.00;;;;7397051;19;20156;-75
2022/04/09 10:49:21;;;;;;;7.50;3.03;;;8.40;1.00;7.50;93596.00;;;;7396448;19;20145;-75
2022/04/09 10:52:06;;;;;;;9.13;3.50;;;6.70;1.00;8.00;93586.00;;;;7395456;19;20494;-72
2022/04/09 10:55:24;;;;;;;5.30;3.00;;;6.80;35.80;10.20;93612.00;;;;7392046;19;20208;-74
2022/04/09 10:58:08;;;;;;;6.65;3.42;;;7.10;14.20;7.60;93597.00;;;;7393216;19;20145;-73
2022/04/09 11:00:44;;;;;;;8.50;2.85;;;7.00;1.00;7.00;93581.00;;;;7395428;19;20125;-74
2022/04/09 11:03:34;;;;;;;6.20;2.92;;;6.50;1.00;8.60;93611.00;;;;7395618;19;20588;-74
2022/04/09 11:06:40;;;;;;;4.85;2.50;;;6.80;1.00;9.30;93603.00;;;;7396694;19;20540;-74
2022/04/09 11:09:08;;;;;;;9.98;2.97;;;6.70;8.80;8.30;93619.00;;;;7390402;19;20165;-75
2022/04/09 11:11:43;;;;;;;4.65;2.63;;;6.80;1.00;7.70;93549.00;;;;7390119;19;20169;-75
2022/04/09 11:14:14;;;;;;;6.47;2.80;;;6.60;1.00;7.50;93557.00;;;;7392558;19;20169;-75
2022/04/09 11:16:52;;;;;;;6.03;2.75;;;7.00;1.00;8.90;93584.00;;;;7392954;19;20876;-76
2022/04/09 11:19:30;;;;;;;5.78;2.30;;;7.20;1.00;10.00;93583.00;;;;7401825;19;20173;-77
2022/04/09 11:22:00;;;;;;;8.05;2.60;;;8.40;1.00;10.80;93593.00;;;;7399080;19;20137;-76
2022/04/09 11:24:51;;;;;;;6.70;3.15;;;8.70;1.00;9.80;93557.00;;;;7397723;19;20473;-75
2022/04/09 11:27:18;;;;;;;7.90;2.47;;;9.10;1.00;10.70;93586.00;;;;7397879;19;20165;-75
2022/04/09 11:29:55;;;;;;;6.07;2.72;;;9.30;1.00;11.20;93550.00;;;;7394277;19;20157;-75
2022/04/09 11:32:25;;;;;;;7.47;2.45;;;9.50;1.00;9.10;93540.00;;;;7399169;19;20188;-74
2022/04/09 11:34:58;;;;;;;6.25;2.45;;;9.30;1.00;9.10;93563.00;;;;7400792;19;20133;-75
2022/04/09 11:37:53;;;;;;;6.95;2.65;;;9.40;1.00;10.40;93552.00;;;;7399827;19;20673;-76
2022/04/09 11:40:23;;;;;;;5.95;2.42;;;10.10;1.00;11.30;93570.00;;;;7398098;19;20523;-77
2022/04/09 11:42:58;;;;;;;4.65;2.30;;;9.80;1.00;11.00;93572.00;;;;7401289;19;20152;-78
2022/04/09 11:45:30;;;;;;;8.10;2.67;;;10.20;1.00;11.50;93555.00;;;;7394467;19;20547;-81
2022/04/09 11:48:12;;;;;;;6.68;3.08;;;9.70;1.00;10.70;93591.00;;;;7400155;19;20588;-79
2022/04/09 11:50:40;;;;;;;6.15;2.50;;;9.80;1.00;12.50;93576.00;;;;7401092;19;20153;-77
2022/04/09 11:53:24;;;;;;;6.40;2.75;;;10.20;1.00;9.60;93599.00;;;;7398237;19;20140;-79
2022/04/09 11:56:05;;;;;;;4.80;2.20;;;10.20;1.00;10.40;93590.00;;;;7396466;19;20133;-77
2022/04/09 11:58:39;;;;;;;6.35;2.63;;;9.40;1.00;10.20;93601.00;;;;7397111;19;20140;-77
2022/04/09 12:01:11;;;;;;;8.07;3.08;;;8.40;1.00;9.30;93619.00;;;;7398211;19;20137;-78
2022/04/09 12:04:00;;;;;;;6.53;2.58;;;7.50;1.00;9.10;93615.00;;;;7397565;19;20165;-77
2022/04/09 12:06:33;;;;;;;6.75;2.75;;;7.50;1.00;8.90;93584.00;;;;7399785;19;20208;-77
2022/04/09 12:09:07;;;;;;;5.82;2.60;;;7.50;1.00;8.60;93600.00;;;;7397784;19;20495;-78
2022/04/09 12:12:12;;;;;;;5.97;2.42;;;6.80;9.20;8.50;93595.00;;;;7401954;19;20153;-76
2022/04/09 12:14:57;;;;;;;6.88;2.50;;;7.40;1.00;7.50;93619.00;;;;7398662;19;20499;-76
2022/04/09 12:17:36;;;;;;;7.75;2.60;;;7.80;1.00;9.50;93567.00;;;;7398095;19;20151;-78
2022/04/09 12:20:39;;;;;;;7.28;2.38;;;7.90;1.00;8.80;93607.00;;;;7401942;19;20508;-79
2022/04/09 12:23:13;;;;;;;6.30;2.60;;;8.00;1.00;8.80;93622.00;;;;7397988;19;20133;-77
2022/04/09 12:25:47;;;;;;;5.65;2.42;;;8.50;1.00;9.10;93617.00;;;;7397769;19;20534;-79
2022/04/09 12:28:32;;;;;;;7.05;2.22;;;8.50;1.00;9.50;93607.00;;;;7400288;19;20129;-76
2022/04/09 12:31:24;;;;;;;7.32;2.70;;;9.20;99.90;10.40;93593.00;;;;7396009;19;20153;-77
2022/04/09 12:33:59;;;;;;;5.68;2.35;;;9.40;99.90;10.10;93609.00;;;;7397017;19;20145;-77
2022/04/09 12:36:38;;;;;;;6.68;2.55;;;8.90;1.00;10.00;93585.00;;;;7397802;19;20161;-78
2022/04/09 12:39:30;;;;;;;6.88;2.67;;;9.20;1.00;8.70;93634.00;;;;7395728;19;20140;-76
2022/04/09 12:42:04;;;;;;;9.10;2.70;;;8.30;1.00;8.20;93609.00;;;;7395853;19;20501;-77
2022/04/09 12:44:35;;;;;;;10.77;2.70;;;8.30;1.00;8.70;93562.00;;;;7396646;19;20148;-78
2022/04/09 12:47:08;;;;;;;4.80;2.50;;;8.70;1.00;8.90;93600.00;;;;7395463;19;20746;-80
2022/04/09 12:49:42;;;;;;;5.68;2.38;;;8.20;1.00;8.30;93576.00;;;;7393886;19;20140;-79
2022/04/09 12:52:13;;;;;;;6.82;2.63;;;8.00;1.00;9.30;93601.00;;;;7396550;19;20117;-79
2022/04/09 12:54:42;;;;;;;7.28;2.60;;;8.00;1.00;8.40;93610.00;;;;7395613;19;20133;-79